Time;durP1;ratioP1;P1;durP2;ratioP2;P2;SDS_P1;SDS_P2;PMS_P1;PMS_P2;Temp;Humidity;BMP_temperature;BMP_pressure;BME280_temperature;BME280_humidity;BME280_pressure;Samples;Min_cycle;Max_cycle;Signal;HPM_P1;HPM_P2
2021/10/13 00:00:28;;;;;;;4.43;3.53;;;;;;;6.85;100.00;95402.44;5051682;28;20526;-61
2021/10/13 00:02:53;;;;;;;7.22;3.65;;;;;;;6.86;100.00;95412.03;5052114;28;20031;-56
2021/10/13 00:05:18;;;;;;;7.95;3.85;;;;;;;-144.43;100.00;64487.81;5051821;28;20021;-59
2021/10/13 00:07:47;;;;;;;7.05;3.80;;;;;;;-144.43;100.00;64487.81;5051847;28;20071;-59
2021/10/13 00:10:12;;;;;;;5.75;3.70;;;;;;;-144.43;100.00;64487.81;5033887;28;20108;-59
2021/10/13 00:12:37;;;;;;;7.88;3.90;;;;;;;-144.43;100.00;64487.81;5033827;28;20112;-59
2021/10/13 00:15:09;;;;;;;5.35;4.00;;;;;;;-144.43;100.00;64487.81;5051849;28;20036;-59
2021/10/13 00:17:35;;;;;;;6.97;3.97;;;;;;;-144.43;100.00;64487.81;5051839;28;20542;-59
2021/10/13 00:20:02;;;;;;;5.05;3.92;;;;;;;-144.43;100.00;64487.81;5051550;28;20021;-59
2021/10/13 00:22:31;;;;;;;5.22;3.47;;;;;;;-144.43;100.00;64487.81;5034189;28;20056;-59
2021/10/13 00:25:04;;;;;;;5.03;3.40;;;;;;;-144.43;100.00;64487.81;5017631;28;20264;-59
2021/10/13 00:27:31;;;;;;;5.70;4.03;;;;;;;-144.43;100.00;64487.81;5054336;28;20052;-60
2021/10/13 00:30:04;;;;;;;8.77;4.00;;;;;;;-144.43;100.00;64487.81;5037444;28;20032;-57
2021/10/13 00:32:29;;;;;;;6.45;4.32;;;;;;;-144.43;100.00;64487.81;5037508;28;20025;-61
2021/10/13 00:34:55;;;;;;;6.70;4.10;;;;;;;-144.43;100.00;64487.81;5037703;28;20034;-59
2021/10/13 00:37:26;;;;;;;5.47;4.10;;;;;;;-144.43;100.00;64487.81;5037808;28;20538;-58
2021/10/13 00:39:55;;;;;;;8.05;4.22;;;;;;;-144.43;100.00;64487.81;5055315;28;20025;-58
2021/10/13 00:42:30;;;;;;;7.10;4.00;;;;;;;-144.43;100.00;64487.81;5055369;28;20025;-58
2021/10/13 00:44:58;;;;;;;7.00;4.07;;;;;;;-144.43;100.00;64487.81;5037424;28;20029;-56
2021/10/13 00:47:23;;;;;;;6.60;4.15;;;;;;;-144.43;100.00;64487.81;5055552;28;20028;-59
2021/10/13 00:49:49;;;;;;;8.48;4.28;;;;;;;-144.43;100.00;64487.81;5037298;28;20052;-61
2021/10/13 00:52:15;;;;;;;5.57;3.38;;;;;;;6.92;100.00;95389.78;5055442;28;20384;-59
2021/10/13 00:54:47;;;;;;;9.18;4.20;;;;;;;6.92;100.00;95400.44;5037942;28;20506;-57
2021/10/13 00:57:12;;;;;;;7.80;4.17;;;;;;;6.92;100.00;95417.22;5055854;28;20040;-59
2021/10/13 00:59:38;;;;;;;6.07;4.20;;;;;;;6.93;100.00;95424.16;5055257;28;20729;-61
2021/10/13 01:02:08;;;;;;;6.43;3.65;;;;;;;6.90;100.00;95431.81;5037430;28;20021;-59
2021/10/13 01:05:01;;;;;;;5.13;3.80;;;;;;;6.91;100.00;95431.59;5021227;28;20036;-58
2021/10/13 01:07:46;;;;;;;5.53;4.03;;;;;;;6.89;100.00;95423.03;5033009;28;20029;-59
2021/10/13 01:10:19;;;;;;;12.38;4.53;;;;;;;6.90;100.00;95426.50;5035069;28;20530;-60
2021/10/13 01:12:55;;;;;;;;;;;;;;;6.88;100.00;95433.91;5035490;28;20029;-59
2021/10/13 01:15:41;;;;;;;8.35;4.32;;;;;;;6.86;100.00;95431.50;5013350;28;19964;-61
2021/10/13 01:18:13;;;;;;;4.10;3.67;;;;;;;6.87;100.00;95434.97;5016771;28;20033;-60
2021/10/13 01:20:59;;;;;;;6.60;4.10;;;;;;;6.86;100.00;95436.00;5041042;28;20494;-60
2021/10/13 01:23:49;;;;;;;5.60;4.13;;;;;;;6.87;100.00;95433.09;5036266;28;20035;-60
2021/10/13 01:26:34;;;;;;;5.13;3.90;;;;;;;6.84;100.00;95438.09;5054151;28;20056;-58
2021/10/13 01:29:08;;;;;;;6.95;4.15;;;;;;;6.84;100.00;95430.91;5036554;28;20029;-58
2021/10/13 01:31:44;;;;;;;7.93;4.40;;;;;;;6.81;100.00;95436.69;5035913;28;20079;-57
2021/10/13 01:34:14;;;;;;;8.18;4.72;;;;;;;6.80;100.00;95432.41;5053972;28;20029;-55
2021/10/13 01:36:50;;;;;;;8.63;4.70;;;;;;;6.78;100.00;95439.00;5036082;28;20055;-56
2021/10/13 01:39:16;;;;;;;6.30;4.40;;;;;;;6.77;100.00;95442.72;5053078;28;20024;-59
2021/10/13 01:41:44;;;;;;;5.65;4.32;;;;;;;6.79;100.00;95444.09;5053885;28;20025;-54
2021/10/13 01:44:11;;;;;;;7.72;4.53;;;;;;;6.80;100.00;95443.06;5036010;28;20057;-55
2021/10/13 01:46:37;;;;;;;6.47;4.60;;;;;;;6.80;100.00;95437.72;5035905;28;20036;-60
2021/10/13 01:49:04;;;;;;;9.38;4.80;;;;;;;6.78;100.00;95441.69;5019227;28;20033;-59
2021/10/13 01:51:29;;;;;;;7.65;4.53;;;;;;;6.78;100.00;95447.00;5053506;28;20021;-59
2021/10/13 01:53:56;;;;;;;7.80;4.80;;;;;;;6.77;100.00;95440.06;5019145;28;20491;-59
2021/10/13 01:56:24;;;;;;;9.10;5.50;;;;;;;6.76;100.00;95446.44;5053678;28;20047;-61
2021/10/13 01:58:50;;;;;;;6.75;4.47;;;;;;;6.74;100.00;95448.53;5035554;28;20028;-61
2021/10/13 02:01:16;;;;;;;8.27;4.78;;;;;;;6.71;100.00;95448.97;5019024;28;20040;-58
2021/10/13 02:03:43;;;;;;;7.15;5.07;;;;;;;6.68;100.00;95447.56;5035662;28;20071;-57
2021/10/13 02:06:11;;;;;;;7.25;5.07;;;;;;;6.64;100.00;95449.91;5053558;28;20040;-60
2021/10/13 02:08:37;;;;;;;7.75;4.30;;;;;;;6.58;100.00;95445.50;5053336;28;20103;-59
2021/10/13 02:11:09;;;;;;;6.57;4.22;;;;;;;6.53;100.00;95449.91;5018793;28;20111;-59
2021/10/13 02:13:36;;;;;;;8.13;4.80;;;;;;;6.45;100.00;95451.03;5053064;28;20025;-59
2021/10/13 02:16:08;;;;;;;6.57;4.35;;;;;;;6.36;100.00;95453.22;5019122;28;20077;-59
2021/10/13 02:18:34;;;;;;;6.00;4.47;;;;;;;6.32;100.00;95464.56;5035265;28;20028;-59
2021/10/13 02:21:05;;;;;;;7.88;4.13;;;;;;;6.26;100.00;95465.47;5018451;28;20093;-60
2021/10/13 02:23:35;;;;;;;5.15;3.80;;;;;;;6.17;100.00;95470.28;5035359;28;20080;-59
2021/10/13 02:26:25;;;;;;;4.93;3.78;;;;;;;6.10;100.00;95473.06;5052939;28;20021;-58
2021/10/13 02:28:56;;;;;;;6.90;3.88;;;;;;;6.06;100.00;95471.88;5018674;28;20055;-60
2021/10/13 02:31:21;;;;;;;4.18;3.67;;;;;;;6.04;100.00;95468.63;5034928;28;20023;-61
2021/10/13 02:33:47;;;;;;;6.28;4.07;;;;;;;6.02;100.00;95478.69;5035080;28;20116;-58
2021/10/13 02:36:15;;;;;;;6.20;4.30;;;;;;;6.02;100.00;95478.69;5052624;28;20473;-58
2021/10/13 02:38:40;;;;;;;6.95;4.05;;;;;;;6.02;100.00;95475.22;5052621;28;20025;-59
2021/10/13 02:41:06;;;;;;;6.57;4.32;;;;;;;6.01;100.00;95481.59;5053075;28;20032;-58
2021/10/13 02:43:31;;;;;;;5.57;4.05;;;;;;;5.99;100.00;95481.81;5052726;28;20095;-58
2021/10/13 02:46:00;;;;;;;5.75;4.05;;;;;;;5.94;100.00;95479.00;5052617;28;20033;-54
2021/10/13 02:48:29;;;;;;;5.57;4.07;;;;;;;5.91;100.00;95489.28;5034919;28;20104;-60
2021/10/13 02:51:10;;;;;;;5.70;4.22;;;;;;;5.83;100.00;95496.50;5034506;28;20025;-59
2021/10/13 02:54:00;;;;;;;4.90;4.07;;;;;;;5.74;100.00;95489.06;5035067;28;20099;-57
2021/10/13 02:56:38;;;;;;;6.50;4.15;;;;;;;5.66;100.00;95500.84;5045169;28;20033;-54
2021/10/13 02:59:16;;;;;;;6.45;3.80;;;;;;;5.64;100.00;95510.03;5034752;28;20079;-55
2021/10/13 03:01:45;;;;;;;4.88;3.90;;;;;;;5.65;100.00;95506.38;5034547;28;20067;-55
2021/10/13 03:04:15;;;;;;;4.93;3.47;;;;;;;5.66;100.00;95508.00;5034800;28;20021;-59
2021/10/13 03:06:51;;;;;;;6.28;4.13;;;;;;;5.67;100.00;95506.97;5034707;28;20033;-57
2021/10/13 03:09:21;;;;;;;4.85;4.00;;;;;;;5.72;100.00;95507.09;5034664;28;20505;-58
2021/10/13 03:11:48;;;;;;;5.40;4.38;;;;;;;5.76;100.00;95510.94;5052146;28;20063;-57
2021/10/13 03:14:14;;;;;;;6.32;4.20;;;;;;;5.83;100.00;95499.16;5034550;28;20029;-57
2021/10/13 03:16:41;;;;;;;5.93;4.15;;;;;;;5.89;100.00;95501.97;5034510;28;20519;-60
2021/10/13 03:19:09;;;;;;;5.53;3.90;;;;;;;5.95;100.00;95496.59;5034607;28;20032;-58
2021/10/13 03:21:40;;;;;;;5.78;3.60;;;;;;;5.97;100.00;95497.19;5017548;28;20052;-59
2021/10/13 03:24:06;;;;;;;5.57;4.00;;;;;;;6.00;100.00;95487.94;5035031;28;20028;-59
2021/10/13 03:26:34;;;;;;;6.78;3.58;;;;;;;6.00;100.00;95491.41;5052144;28;20035;-60
2021/10/13 03:28:59;;;;;;;5.25;3.63;;;;;;;6.01;100.00;95486.91;5017787;28;20017;-56
2021/10/13 03:31:25;;;;;;;6.57;4.07;;;;;;;6.01;100.00;95490.38;5017780;28;20040;-58
2021/10/13 03:33:52;;;;;;;5.68;3.42;;;;;;;6.02;100.00;95493.84;5034161;28;20033;-59
2021/10/13 03:36:20;;;;;;;6.13;3.33;;;;;;;6.02;100.00;95501.81;5052246;28;20021;-58
2021/10/13 03:38:46;;;;;;;4.53;3.38;;;;;;;6.01;100.00;95500.19;5014449;28;20029;-62
2021/10/13 03:41:11;;;;;;;6.15;3.80;;;;;;;6.00;100.00;95503.91;5031964;28;20072;-58
2021/10/13 03:43:52;;;;;;;4.38;3.28;;;;;;;5.99;100.00;95520.91;5014619;28;20395;-59
2021/10/13 03:46:21;;;;;;;5.18;3.28;;;;;;;5.97;100.00;95512.31;5031984;28;20083;-59
2021/10/13 03:48:49;;;;;;;5.35;3.50;;;;;;;5.94;100.00;95512.75;5031970;28;20128;-58
2021/10/13 03:51:18;;;;;;;5.03;3.42;;;;;;;5.90;100.00;95516.88;5014292;28;20028;-59
2021/10/13 03:53:43;;;;;;;4.25;3.58;;;;;;;5.87;100.00;95515.50;5032058;28;20112;-59
2021/10/13 03:56:10;;;;;;;3.95;3.55;;;;;;;5.83;100.00;95514.31;5032026;28;20451;-58
2021/10/13 03:58:35;;;;;;;5.25;3.30;;;;;;;5.79;100.00;95511.28;5032033;28;20053;-57
2021/10/13 04:01:04;;;;;;;5.90;3.35;;;;;;;5.76;100.00;95513.59;5032114;28;20045;-54
2021/10/13 04:03:32;;;;;;;4.43;3.53;;;;;;;5.73;100.00;95519.34;5035741;28;20036;-56
2021/10/13 04:05:58;;;;;;;6.95;3.15;;;;;;;5.69;100.00;95513.66;5017781;28;20383;-61
2021/10/13 04:08:23;;;;;;;4.95;3.40;;;;;;;5.65;100.00;95512.50;5017900;28;20030;-53
2021/10/13 04:10:48;;;;;;;4.25;3.50;;;;;;;5.61;100.00;95510.50;5017726;28;20025;-57
2021/10/13 04:13:17;;;;;;;8.20;3.78;;;;;;;5.55;100.00;95516.72;5018039;28;20025;-59
2021/10/13 04:15:42;;;;;;;4.03;3.10;;;;;;;5.50;100.00;95512.88;5017848;28;20124;-57
2021/10/13 04:18:08;;;;;;;4.55;3.53;;;;;;;5.46;100.00;95522.31;5017909;28;20498;-58
2021/10/13 04:20:33;;;;;;;4.25;3.05;;;;;;;5.43;100.00;95517.47;5034758;28;20103;-61
2021/10/13 04:23:04;;;;;;;3.78;2.97;;;;;;;5.44;100.00;95526.25;5017853;28;20068;-58
2021/10/13 04:25:30;;;;;;;5.47;3.67;;;;;;;5.43;100.00;95528.09;5035363;28;20033;-59
2021/10/13 04:28:00;;;;;;;4.30;3.60;;;;;;;5.48;100.00;95524.75;5035367;28;20463;-59
2021/10/13 04:30:29;;;;;;;4.57;3.42;;;;;;;5.49;100.00;95521.88;5042238;28;20021;-58
2021/10/13 04:32:58;;;;;;;8.48;3.75;;;;;;;5.50;100.00;95520.84;5037423;28;20033;-61
2021/10/13 04:35:23;;;;;;;3.97;3.40;;;;;;;5.54;100.00;95513.25;5020624;28;20766;-58
2021/10/13 04:37:52;;;;;;;6.20;3.85;;;;;;;5.56;100.00;95507.72;5037300;28;20071;-56
2021/10/13 04:40:20;;;;;;;6.05;3.80;;;;;;;5.57;100.00;95519.97;5055101;28;20376;-57
2021/10/13 04:42:45;;;;;;;3.95;3.28;;;;;;;5.52;100.00;95516.09;5055008;28;20059;-58
2021/10/13 04:45:14;;;;;;;4.88;3.85;;;;;;;5.50;100.00;95523.50;5055146;28;20024;-60
2021/10/13 04:47:47;;;;;;;5.82;3.55;;;;;;;5.49;100.00;95532.50;5054787;28;20035;-62
2021/10/13 04:50:12;;;;;;;6.03;3.95;;;;;;;5.50;100.00;95541.28;5054949;28;20029;-62
2021/10/13 04:52:40;;;;;;;4.40;3.42;;;;;;;5.48;100.00;95538.03;5054688;28;20037;-62
2021/10/13 04:55:12;;;;;;;6.35;3.72;;;;;;;5.43;100.00;95541.38;5054798;28;20028;-62
2021/10/13 04:57:37;;;;;;;5.40;4.25;;;;;;;5.40;100.00;95540.97;5036739;28;20541;-62
2021/10/13 05:00:06;;;;;;;6.97;3.97;;;;;;;5.34;100.00;95545.34;5036690;28;20025;-61
2021/10/13 05:02:31;;;;;;;5.78;4.00;;;;;;;5.29;100.00;95545.19;5054496;28;20024;-62
2021/10/13 05:04:57;;;;;;;5.47;3.90;;;;;;;5.27;100.00;95549.09;5054640;28;20474;-62
2021/10/13 05:07:22;;;;;;;4.70;3.70;;;;;;;5.23;100.00;95567.31;5036995;28;20029;-62
2021/10/13 05:09:55;;;;;;;7.75;3.83;;;;;;;5.18;100.00;95567.97;5054468;28;20036;-62
2021/10/13 05:12:20;;;;;;;;;;;;;;;5.14;100.00;95568.63;5054348;28;20405;-61
2021/10/13 05:14:46;;;;;;;4.70;3.60;;;;;;;5.12;100.00;95576.81;5035930;28;19916;-62
2021/10/13 05:17:11;;;;;;;5.60;4.20;;;;;;;5.12;100.00;95594.59;5036706;28;20358;-61
2021/10/13 05:19:37;;;;;;;4.30;3.78;;;;;;;5.10;100.00;95593.97;5030234;28;20479;-61
2021/10/13 05:22:02;;;;;;;4.50;3.83;;;;;;;5.08;100.00;95596.03;5029531;23;21005;-60
2021/10/13 05:24:27;;;;;;;5.82;3.92;;;;;;;5.11;100.00;95593.78;5031363;28;20053;-59
2021/10/13 05:26:53;;;;;;;5.95;4.32;;;;;;;-144.43;100.00;64487.81;5033708;28;20459;-59
2021/10/13 05:29:18;;;;;;;5.80;4.03;;;;;;;-144.43;100.00;64487.81;5030424;28;20108;-59
2021/10/13 05:31:43;;;;;;;6.15;3.97;;;;;;;-144.43;100.00;64487.81;5028198;28;20020;-57
2021/10/13 05:34:09;;;;;;;4.78;3.85;;;;;;;-144.43;100.00;64487.81;5054827;28;20470;-60
2021/10/13 05:36:34;;;;;;;7.93;3.50;;;;;;;-144.43;100.00;64487.81;5044666;28;20483;-61
2021/10/13 05:39:02;;;;;;;4.80;3.80;;;;;;;-144.43;100.00;64487.81;5045543;28;20024;-59
2021/10/13 05:41:27;;;;;;;6.15;3.95;;;;;;;-144.43;100.00;64487.81;5048061;28;20028;-59
2021/10/13 05:43:55;;;;;;;6.18;3.92;;;;;;;-144.43;100.00;64487.81;5068379;28;20012;-59
2021/10/13 05:46:29;;;;;;;5.53;3.92;;;;;;;-144.43;100.00;64487.81;5044996;28;20021;-57
2021/10/13 05:48:54;;;;;;;4.65;3.83;;;;;;;-144.43;100.00;64487.81;5059988;28;20020;-56
2021/10/13 05:51:30;;;;;;;6.15;4.15;;;;;;;-144.43;100.00;64487.81;5051301;28;20029;-59
2021/10/13 05:53:55;;;;;;;4.88;3.85;;;;;;;-144.43;100.00;64487.81;5035374;28;20654;-59
2021/10/13 05:56:21;;;;;;;4.55;3.80;;;;;;;-144.43;100.00;64487.81;5041268;28;20111;-60
2021/10/13 05:58:52;;;;;;;4.95;3.92;;;;;;;-144.43;100.00;64487.81;5050783;28;20513;-59
2021/10/13 06:01:19;;;;;;;4.80;3.85;;;;;;;-144.43;100.00;64487.81;5020634;28;21627;-58
2021/10/13 06:03:45;;;;;;;4.43;3.75;;;;;;;-144.43;100.00;64487.81;5060902;28;20073;-60
2021/10/13 06:06:10;;;;;;;4.60;3.63;;;;;;;-144.43;100.00;64487.81;5067176;28;20436;-57
2021/10/13 06:08:35;;;;;;;6.47;3.80;;;;;;;-144.43;100.00;64487.81;5068357;28;20017;-55
2021/10/13 06:11:01;;;;;;;8.25;3.92;;;;;;;-144.43;100.00;64487.81;5058719;28;20028;-60
2021/10/13 06:13:26;;;;;;;5.35;3.85;;;;;;;-144.43;100.00;64487.81;5055725;28;20036;-59
2021/10/13 06:15:53;;;;;;;5.47;4.05;;;;;;;-144.43;100.00;64487.81;5071061;28;20024;-56
2021/10/13 06:18:18;;;;;;;6.47;4.45;;;;;;;-144.43;100.00;64487.81;5072013;28;20020;-57
2021/10/13 06:20:46;;;;;;;4.82;3.97;;;;;;;-144.43;100.00;64487.81;5072811;28;20403;-58
2021/10/13 06:23:11;;;;;;;6.82;4.47;;;;;;;-144.43;100.00;64487.81;5073082;28;20479;-56
2021/10/13 06:25:38;;;;;;;5.47;4.32;;;;;;;-144.43;100.00;64487.81;5071344;28;20108;-61
2021/10/13 06:28:03;;;;;;;5.03;3.85;;;;;;;-144.43;100.00;64487.81;5073051;28;20052;-61
2021/10/13 06:30:31;;;;;;;5.13;3.95;;;;;;;-144.43;100.00;64487.81;5052868;28;20067;-60
2021/10/13 06:32:56;;;;;;;6.72;4.13;;;;;;;-144.43;100.00;64487.81;5072927;28;20029;-60
2021/10/13 06:35:22;;;;;;;8.15;4.97;;;;;;;-144.43;100.00;64487.81;5072615;28;20025;-59
2021/10/13 06:37:49;;;;;;;5.55;4.38;;;;;;;-144.43;100.00;64487.81;5072751;28;20078;-60
2021/10/13 06:40:14;;;;;;;6.35;4.43;;;;;;;-144.43;100.00;64487.81;5055285;28;20475;-60
2021/10/13 06:42:41;;;;;;;7.32;5.03;;;;;;;-144.43;100.00;64487.81;5054925;28;20032;-53
2021/10/13 06:45:10;;;;;;;6.47;4.80;;;;;;;5.15;100.00;95634.78;5054728;28;20074;-57
2021/10/13 06:47:36;;;;;;;8.65;5.18;;;;;;;-144.43;100.00;64487.81;5072621;28;20025;-55
2021/10/13 06:50:02;;;;;;;9.13;5.07;;;;;;;5.31;100.00;95672.44;5054573;28;20073;-56
2021/10/13 06:52:30;;;;;;;7.63;5.78;;;;;;;5.40;100.00;95687.91;5072595;28;20028;-55
2021/10/13 06:54:56;;;;;;;6.50;5.03;;;;;;;5.44;100.00;95690.97;5072448;28;20036;-58
2021/10/13 06:57:21;;;;;;;7.43;5.25;;;;;;;5.44;100.00;95701.59;5072583;28;20028;-56
2021/10/13 06:59:47;;;;;;;8.43;5.57;;;;;;;5.49;100.00;95712.34;5072521;28;20081;-57
2021/10/13 07:02:12;;;;;;;9.27;5.53;;;;;;;5.53;100.00;95716.19;5071115;28;20106;-54
2021/10/13 07:04:37;;;;;;;7.88;4.97;;;;;;;5.51;100.00;95721.72;5072516;28;20036;-56
2021/10/13 07:07:05;;;;;;;8.38;5.68;;;;;;;5.45;100.00;95725.28;5071259;28;20479;-57
2021/10/13 07:09:30;;;;;;;6.60;4.70;;;;;;;5.44;100.00;95739.59;5072367;28;20044;-58
2021/10/13 07:11:56;;;;;;;5.97;4.53;;;;;;;5.38;100.00;95739.63;5072233;28;20098;-58
2021/10/13 07:14:23;;;;;;;8.05;4.97;;;;;;;5.31;100.00;95754.78;5045385;28;20020;-62
2021/10/13 07:16:49;;;;;;;9.20;5.13;;;;;;;5.28;100.00;95753.38;5046603;28;20021;-62
2021/10/13 07:19:14;;;;;;;7.65;4.60;;;;;;;5.21;100.00;95761.41;5051603;28;20071;-61
2021/10/13 07:21:39;;;;;;;6.78;4.70;;;;;;;5.19;100.00;95767.94;5067269;28;20500;-62
2021/10/13 07:24:05;;;;;;;5.65;4.63;;;;;;;5.14;100.00;95773.09;5032316;28;20025;-57
2021/10/13 07:26:33;;;;;;;6.50;4.38;;;;;;;5.13;100.00;95776.78;5048397;28;20027;-56
2021/10/13 07:28:59;;;;;;;6.55;4.78;;;;;;;5.16;100.00;95782.47;5064348;28;20048;-55
2021/10/13 07:31:24;;;;;;;5.88;4.40;;;;;;;5.23;100.00;95788.56;5054409;28;20055;-56
2021/10/13 07:33:49;;;;;;;5.35;4.45;;;;;;;5.37;100.00;95785.81;5047987;28;20056;-53
2021/10/13 07:36:14;;;;;;;7.32;5.10;;;;;;;5.48;100.00;95788.59;5064220;28;20103;-59
2021/10/13 07:38:41;;;;;;;6.97;4.88;;;;;;;5.86;100.00;95784.19;5076105;28;20115;-56
2021/10/13 07:41:07;;;;;;;9.68;5.72;;;;;;;6.02;100.00;95778.38;5076053;28;20016;-54
2021/10/13 07:43:33;;;;;;;9.30;5.97;;;;;;;6.03;100.00;95772.03;5075973;28;20017;-56
2021/10/13 07:45:58;;;;;;;6.68;4.90;;;;;;;6.00;100.00;95772.47;5035778;28;20025;-57
2021/10/13 07:48:25;;;;;;;9.05;4.28;;;;;;;5.97;100.00;95775.53;5066415;28;20387;-57
2021/10/13 07:50:55;;;;;;;5.80;4.30;;;;;;;6.20;100.00;95774.94;5057840;28;20031;-58
2021/10/13 07:53:38;;;;;;;7.22;3.72;;;;;;;6.46;100.00;95781.81;5074573;28;20115;-58
2021/10/13 07:56:03;;;;;;;5.90;3.17;;;;;;;6.82;100.00;95780.97;5058059;28;20042;-58
2021/10/13 07:58:32;;;;;;;8.70;3.53;;;;;;;7.07;100.00;95783.53;5057806;28;20491;-59
2021/10/13 08:01:06;;;;;;;6.22;3.42;;;;;;;7.28;100.00;95776.91;5041136;28;20024;-60
2021/10/13 08:03:35;;;;;;;4.97;3.45;;;;;;;7.51;100.00;95774.28;5061869;28;20025;-59
2021/10/13 08:06:00;;;;;;;6.75;3.70;;;;;;;7.82;100.00;95768.66;5074500;28;20027;-59
2021/10/13 08:08:32;;;;;;;5.65;3.40;;;;;;;7.96;100.00;95763.09;5075412;28;20029;-59
2021/10/13 08:11:06;;;;;;;6.15;3.58;;;;;;;8.13;100.00;95759.47;5075285;28;20032;-60
2021/10/13 08:13:33;;;;;;;5.43;2.90;;;;;;;8.01;100.00;95757.88;5057432;28;20027;-60
2021/10/13 08:15:59;;;;;;;4.00;2.55;;;;;;;7.76;100.00;95755.44;5075203;28;20035;-62
2021/10/13 08:18:30;;;;;;;5.68;2.55;;;;;;;7.71;100.00;95755.31;5074314;28;20020;-57
2021/10/13 08:20:56;;;;;;;4.38;2.50;;;;;;;7.87;100.00;95751.97;5075057;28;20040;-59
2021/10/13 08:23:22;;;;;;;3.05;2.33;;;;;;;8.02;100.00;95751.47;5057311;28;20456;-59
2021/10/13 08:26:00;;;;;;;3.63;2.60;;;;;;;8.07;100.00;95740.94;5075311;28;20032;-61
2021/10/13 08:28:26;;;;;;;3.42;2.50;;;;;;;-144.43;100.00;64487.81;5053124;28;20561;-61
2021/10/13 08:30:51;;;;;;;6.15;3.20;;;;;;;-144.43;100.00;64487.81;5050125;28;20036;-61
2021/10/13 08:33:29;;;;;;;4.38;2.75;;;;;;;-144.43;100.00;64487.81;5075016;28;20032;-60
2021/10/13 08:35:57;;;;;;;4.15;2.67;;;;;;;-144.43;100.00;64487.81;5073535;28;20108;-59
2021/10/13 08:38:23;;;;;;;4.07;2.70;;;;;;;-144.43;100.00;64487.81;5057066;28;20153;-59
2021/10/13 08:40:54;;;;;;;4.13;2.45;;;;;;;-144.43;100.00;64487.81;5057178;28;20111;-60
2021/10/13 08:43:20;;;;;;;4.30;2.85;;;;;;;-144.43;100.00;64487.81;5074776;28;20039;-60
2021/10/13 08:46:00;;;;;;;2.63;2.20;;;;;;;-144.43;100.00;64487.81;5057314;28;20024;-59
2021/10/13 08:48:26;;;;;;;3.70;2.47;;;;;;;-144.43;100.00;64487.81;5056741;28;20029;-61
2021/10/13 08:51:03;;;;;;;6.90;2.70;;;;;;;-144.43;100.00;64487.81;5074559;28;20035;-59
2021/10/13 08:53:28;;;;;;;3.00;2.30;;;;;;;-144.43;100.00;64487.81;5074651;28;20036;-61
2021/10/13 08:55:55;;;;;;;5.18;2.63;;;;;;;-144.43;100.00;64487.81;5056729;28;20382;-59
2021/10/13 08:58:22;;;;;;;3.80;2.38;;;;;;;-144.43;100.00;64487.81;5056385;28;20051;-60
2021/10/13 09:01:07;;;;;;;5.05;2.30;;;;;;;-144.43;100.00;64487.81;5074564;28;20422;-60
2021/10/13 09:03:36;;;;;;;3.20;2.70;;;;;;;-144.43;100.00;64487.81;5061074;28;20025;-59
2021/10/13 09:06:34;;;;;;;5.53;2.80;;;;;;;-144.43;100.00;64487.81;5056496;28;20017;-58
2021/10/13 09:09:02;;;;;;;4.82;2.63;;;;;;;-144.43;100.00;64487.81;5074483;28;20031;-60
2021/10/13 09:11:34;;;;;;;5.88;2.70;;;;;;;-144.43;100.00;64487.81;5074130;28;20507;-61
2021/10/13 09:14:20;;;;;;;3.03;2.47;;;;;;;-144.43;100.00;64487.81;5074199;28;20479;-58
2021/10/13 09:17:08;;;;;;;5.68;2.65;;;;;;;-144.43;100.00;64487.81;5056457;28;20135;-58
2021/10/13 09:19:33;;;;;;;3.63;2.50;;;;;;;-144.43;100.00;64487.81;5064485;28;20503;-58
2021/10/13 09:22:04;;;;;;;3.30;2.67;;;;;;;-144.43;100.00;64487.81;5062591;28;20049;-56
2021/10/13 09:24:31;;;;;;;3.38;2.60;;;;;;;-144.43;100.00;64487.81;5052453;28;20124;-56
2021/10/13 09:26:59;;;;;;;3.28;2.60;;;;;;;-144.43;100.00;64487.81;5059376;28;20024;-53
2021/10/13 09:29:25;;;;;;;4.53;2.60;;;;;;;-144.43;100.00;64487.81;5049495;28;20020;-54
2021/10/13 09:31:56;;;;;;;5.65;2.55;;;;;;;-144.43;100.00;64487.81;5055165;28;20032;-58
2021/10/13 09:34:21;;;;;;;5.15;2.53;;;;;;;-144.43;100.00;64487.81;5050199;28;20041;-59
2021/10/13 09:37:01;;;;;;;4.05;2.40;;;;;;;-144.43;100.00;64487.81;5052142;28;20399;-54
2021/10/13 09:39:32;;;;;;;3.22;2.28;;;;;;;-144.43;100.00;64487.81;5055747;28;20020;-60
2021/10/13 09:42:02;;;;;;;4.75;2.58;;;;;;;-144.43;100.00;64487.81;5073990;28;20024;-56
2021/10/13 09:44:37;;;;;;;3.63;2.70;;;;;;;-144.43;100.00;64487.81;5073733;28;20053;-52
2021/10/13 09:47:06;;;;;;;2.75;2.30;;;;;;;-144.43;100.00;64487.81;5073908;28;20063;-56
2021/10/13 09:49:40;;;;;;;4.30;2.85;;;;;;;-144.43;100.00;64487.81;5039346;28;20036;-51
2021/10/13 09:52:08;;;;;;;3.67;2.45;;;;;;;-144.43;100.00;64487.81;5055660;28;20029;-53
2021/10/13 09:54:35;;;;;;;3.15;2.42;;;;;;;-144.43;100.00;64487.81;5056000;28;20020;-51
2021/10/13 09:57:23;;;;;;;5.47;2.78;;;;;;;-144.43;100.00;64487.81;5056005;28;20028;-51
2021/10/13 09:59:58;;;;;;;4.35;2.60;;;;;;;-144.43;100.00;64487.81;5072946;28;20027;-53
2021/10/13 10:02:32;;;;;;;4.85;2.92;;;;;;;-144.43;100.00;64487.81;5049506;28;20113;-52
2021/10/13 10:05:01;;;;;;;3.70;2.50;;;;;;;-144.43;100.00;64487.81;5046345;28;20495;-53
2021/10/13 10:07:27;;;;;;;2.85;2.33;;;;;;;-144.43;100.00;64487.81;5073348;28;20025;-56
2021/10/13 10:10:09;;;;;;;4.45;3.03;;;;;;;-144.43;100.00;64487.81;5067027;28;20024;-55
2021/10/13 10:13:06;;;;;;;3.08;2.50;;;;;;;-144.43;100.00;64487.81;5036188;28;20048;-54
2021/10/13 10:15:38;;;;;;;5.15;2.38;;;;;;;-144.43;100.00;64487.81;5063714;28;20031;-60
2021/10/13 10:18:32;;;;;;;3.05;2.60;;;;;;;-144.43;100.00;64487.81;5049409;28;20042;-59
2021/10/13 10:21:27;;;;;;;3.40;2.72;;;;;;;-144.43;100.00;64487.81;5048297;28;20040;-59
2021/10/13 10:23:52;;;;;;;5.28;2.58;;;;;;;-144.43;100.00;64487.81;5071231;28;20051;-60
2021/10/13 10:26:24;;;;;;;3.80;2.72;;;;;;;-144.43;100.00;64487.81;5072393;28;20394;-58
2021/10/13 10:28:53;;;;;;;3.40;2.53;;;;;;;-144.43;100.00;64487.81;5046017;28;20025;-53
2021/10/13 10:31:28;;;;;;;5.57;2.53;;;;;;;-144.43;100.00;64487.81;5055287;28;20115;-54
2021/10/13 10:34:02;;;;;;;3.60;2.97;;;;;;;-144.43;100.00;64487.81;5048278;28;20032;-57
2021/10/13 10:36:31;;;;;;;3.22;2.40;;;;;;;-144.43;100.00;64487.81;5067506;28;20093;-52
2021/10/13 10:38:56;;;;;;;3.38;2.28;;;;;;;-144.43;100.00;64487.81;5062143;28;20044;-51
2021/10/13 10:41:40;;;;;;;3.65;2.47;;;;;;;-144.43;100.00;64487.81;5044873;28;20063;-56
2021/10/13 10:44:46;;;;;;;5.90;2.42;;;;;;;-144.43;100.00;64487.81;5054472;28;20384;-53
2021/10/13 10:47:16;;;;;;;3.53;2.58;;;;;;;-144.43;100.00;64487.81;5001192;28;20032;-51
2021/10/13 10:49:50;;;;;;;3.38;2.22;;;;;;;-144.43;100.00;64487.81;5020293;28;20047;-52
2021/10/13 10:52:21;;;;;;;4.65;2.00;;;;;;;-144.43;100.00;64487.81;5019927;28;20120;-53
2021/10/13 10:54:52;;;;;;;3.35;2.15;;;;;;;-144.43;100.00;64487.81;5012106;28;20095;-54
2021/10/13 10:57:37;;;;;;;2.67;2.30;;;;;;;-144.43;100.00;64487.81;5016575;28;20084;-53
2021/10/13 11:00:30;;;;;;;3.72;1.98;;;;;;;-144.43;100.00;64487.81;5015896;28;20443;-57
2021/10/13 11:03:27;;;;;;;3.70;2.65;;;;;;;-144.43;100.00;64487.81;5022348;28;20392;-53
2021/10/13 11:05:54;;;;;;;2.85;2.22;;;;;;;-144.43;100.00;64487.81;5023527;28;20499;-58
2021/10/13 11:08:21;;;;;;;3.72;2.40;;;;;;;-144.43;100.00;64487.81;5004223;28;20103;-50
2021/10/13 11:10:47;;;;;;;2.40;2.20;;;;;;;-144.43;100.00;64487.81;5018313;28;20042;-52
2021/10/13 11:13:12;;;;;;;4.13;2.38;;;;;;;-144.43;100.00;64487.81;5006862;28;20056;-54
2021/10/13 11:15:39;;;;;;;5.18;2.47;;;;;;;-144.43;100.00;64487.81;5008923;28;20063;-53
2021/10/13 11:18:17;;;;;;;4.18;2.30;;;;;;;-144.43;100.00;64487.81;5008829;28;20566;-52
2021/10/13 11:20:44;;;;;;;3.55;2.15;;;;;;;-144.43;100.00;64487.81;5037851;28;20568;-58
2021/10/13 11:23:11;;;;;;;4.28;2.53;;;;;;;-144.43;100.00;64487.81;5043719;28;20403;-57
2021/10/13 11:25:40;;;;;;;4.82;2.13;;;;;;;-144.43;100.00;64487.81;5029090;28;20031;-54
2021/10/13 11:28:09;;;;;;;3.55;2.50;;;;;;;-144.43;100.00;64487.81;5064540;28;20028;-63
2021/10/13 11:30:37;;;;;;;3.78;2.30;;;;;;;-144.43;100.00;64487.81;5050971;28;20020;-63
2021/10/13 11:33:11;;;;;;;3.70;2.35;;;;;;;-144.43;100.00;64487.81;5049553;28;20096;-55